Nearby METAR Reports

 

KADS - Dallas/Addison, Texas, USA
Distance from station: SSW 10mi, 16km
Updated: Sat, 25-Feb-2017 11:15pm CST
Clear
Clear
 Wind from ESE
Wind: ESE 3 mph , 6 km/h
Temperature: 45°F , 7°C
Dew Point: 25°F , -4°C
Humidity: 46%
Barometer: 30.10 inHg , 1019.3 hPa
Clouds: Clear
Visibility: 10 miles , 16 km
2017/02/26 05:15 KADS 260515Z AUTO 11003KT 10SM CLR 07/M04 A3010 RMK AO2 T00731044
KTKI - Mckinney, Texas, USA
Distance from station: ENE 11mi, 18km
Updated: Sat, 25-Feb-2017 10:53pm CST
Clear
Clear
 Wind from calm
Wind: Calm
Temperature: 36°F , 2°C
Dew Point: 28°F , -2°C
Humidity: 75%
Barometer: 30.09 inHg , 1019 hPa
Clouds: Clear
Visibility: 10 miles , 16 km
2017/02/26 04:53 KTKI 260453Z AUTO 00000KT 10SM CLR 02/M02 A3009 RMK AO2 SLP204 T00171022
 
KDAL - Dallas/Love Fld, Texas, USA
Distance from station: SSW 18mi, 30km
Updated: Sat, 25-Feb-2017 10:53pm CST
Mostly cloudy
Mostly cloudy
 Wind from E
Wind: E 5 mph , 7 km/h
Temperature: 45°F , 7°C
Wind Chill: 42°F , 6°C
Dew Point: 27°F , -3°C
Humidity: 49%
Barometer: 30.09 inHg , 1019 hPa
Clouds: Mostly cloudy
Visibility: 10 miles , 16 km
Cloud details: Mostly cloudy 25000 ft
2017/02/26 04:53 KDAL 260453Z 09004KT 10SM BKN250 07/M03 A3009 RMK AO2 SLP188 T00721028
KDFW - Dallas/Ft Worth, Texas, USA
Distance from station: SW 21mi, 34km
Updated: Sat, 25-Feb-2017 10:53pm CST
Mostly cloudy
Mostly cloudy
 Wind from ESE
Wind: ESE 5 mph , 7 km/h
Temperature: 45°F , 7°C
Wind Chill: 42°F , 6°C
Dew Point: 25°F , -4°C
Humidity: 46%
Barometer: 30.07 inHg , 1018.3 hPa
Clouds: Mostly cloudy
Visibility: 10 miles , 16 km
Cloud details: Mostly cloudy 25000 ft
2017/02/26 04:53 KDFW 260453Z 12004KT 10SM BKN250 07/M04 A3007 RMK AO2 SLP182 T00721044
 
KF46 - Rockwall, Texas, USA
Distance from station: ESE 22mi, 35km
Updated: Sat, 25-Feb-2017 11:15pm CST
Clear
Clear
 Wind from E
Wind: E 5 mph , 7 km/h
Temperature: 41°F , 5°C
Wind Chill: 38°F , 3°C
Dew Point: 27°F , -3°C
Humidity: 57%
Barometer: 30.10 inHg , 1019.3 hPa
Clouds: Clear
Visibility: 10 miles , 16 km
2017/02/26 05:15 KF46 260515Z AUTO 10004KT 10SM CLR 05/M03 A3010 RMK AO2 T00511033
KDTO - Denton, Texas, USA
Distance from station: WNW 27mi, 43km
Updated: Sat, 25-Feb-2017 10:53pm CST
Clear
Clear
 Wind from SE
Wind: SE 5 mph , 7 km/h
Temperature: 39°F , 4°C
Wind Chill: 35°F , 2°C
Dew Point: 25°F , -4°C
Humidity: 56%
Barometer: 30.08 inHg , 1018.6 hPa
Clouds: Clear
Visibility: 10 miles , 16 km
2017/02/26 04:53 KDTO 260453Z AUTO 13004KT 10SM CLR 04/M04 A3008 RMK AO2 SLP186 T00391039 $
 
KHQZ - Mesquite, Texas, USA
Distance from station: SSE 28mi, 44km
Updated: Sat, 25-Feb-2017 11:15pm CST
Clear
Clear
 Wind from calm
Wind: Calm
Temperature: 39°F , 4°C
Dew Point: 27°F , -3°C
Humidity: 61%
Barometer: 30.10 inHg , 1019.3 hPa
Clouds: Clear
Visibility: 10 miles , 16 km
2017/02/26 05:15 KHQZ 260515Z AUTO 00000KT 10SM CLR 04/M03 A3010 RMK AO1 T00431028
KRBD - Dallas/Redbird, Texas, USA
Distance from station: SSW 30mi, 48km
Updated: Sat, 25-Feb-2017 10:53pm CST
Clear
Clear
 Wind from ESE
Wind: ESE 3 mph , 6 km/h
Temperature: 43°F , 6°C
Dew Point: 25°F , -4°C
Humidity: 49%
Barometer: 30.08 inHg , 1018.6 hPa
Clouds: Clear
Visibility: 10 miles , 16 km
2017/02/26 04:53 KRBD 260453Z AUTO 12003KT 10SM CLR 06/M04 A3008 RMK AO2 SLP185 T00561039
 
KGPM - Grand Prairie, Texas, USA
Distance from station: SSW 33mi, 53km
Updated: Sat, 25-Feb-2017 11:15pm CST
Clear
Clear
 Wind from calm
Wind: Calm
Temperature: 43°F , 6°C
Dew Point: 25°F , -4°C
Humidity: 49%
Barometer: 30.10 inHg , 1019.3 hPa
Clouds: Clear
Visibility: 10 miles , 16 km
2017/02/26 05:15 KGPM 260515Z AUTO 00000KT 10SM CLR 06/M04 A3010 RMK AO2 T00641042
KAFW - Ft Worth/Allianc, Texas, USA
Distance from station: WSW 34mi, 55km
Updated: Sat, 25-Feb-2017 10:53pm CST
Few Clouds
Few Clouds
 Wind from calm
Wind: Calm
Temperature: 39°F , 4°C
Dew Point: 25°F , -4°C
Humidity: 56%
Barometer: 30.07 inHg , 1018.3 hPa
Clouds: Few Clouds
Visibility: 10 miles , 16 km
Cloud details: Few Clouds 25000 ft
2017/02/26 04:53 KAFW 260453Z 00000KT 10SM FEW250 04/M04 A3007 RMK AO2 SLP189 T00441044
 
KLNC - Lancaster, Texas, USA
Distance from station: S 36mi, 58km
Updated: Sat, 25-Feb-2017 11:15pm CST
Clear
Clear
 Wind from calm
Wind: Calm
Temperature: 37°F , 3°C
Dew Point: 28°F , -2°C
Humidity: 70%
Barometer: 30.10 inHg , 1019.3 hPa
Clouds: Clear
Visibility: 10 miles , 16 km
2017/02/26 05:15 KLNC 260515Z AUTO 00000KT 10SM CLR 03/M02 A3010 RMK AO2 T00271023
KGKY - Arlington, Texas, USA
Distance from station: SSW 36mi, 59km
Updated: Sat, 25-Feb-2017 10:53pm CST
Clear
Clear
 Wind from calm
Wind: Calm
Temperature: 37°F , 3°C
Dew Point: 28°F , -2°C
Humidity: 70%
Barometer: 30.08 inHg , 1018.6 hPa
Clouds: Clear
Visibility: 10 miles , 16 km
2017/02/26 04:53 KGKY 260453Z AUTO 00000KT 10SM CLR 03/M02 A3008 RMK AO2 SLP188 T00281022 $
 
KTRL - Terrell, Texas, USA
Distance from station: SE 39mi, 63km
Updated: Sat, 25-Feb-2017 10:53pm CST
Clear
Clear
 Wind from NE
Wind: NE 3 mph , 6 km/h
Temperature: 37°F , 3°C
Dew Point: 30°F , -1°C
Humidity: 75%
Barometer: 30.10 inHg , 1019.3 hPa
Clouds: Clear
Visibility: 10 miles , 16 km
2017/02/26 04:53 KTRL 260453Z AUTO 04003KT 10SM CLR 03/M01 A3010 RMK AO2 SLP193 T00331011
KGVT - Greenville/Major, Texas, USA
Distance from station: E 40mi, 64km
Updated: Sat, 25-Feb-2017 11:15pm CST

 Wind from calm
Wind: Calm
Temperature: 36°F , 2°C
Dew Point: 30°F , -1°C
Humidity: 81%
Barometer: 30.10 inHg , 1019.3 hPa
Visibility: 10 miles , 16 km
2017/02/26 05:15 KGVT 260515Z AUTO 00000KT 10SM 02/M01 A3010 RMK AO2
 
KFTW - Fort Worth, Texas, USA
Distance from station: WSW 40mi, 65km
Updated: Sat, 25-Feb-2017 10:53pm CST
Clear
Clear
 Wind from ESE
Wind: ESE 6 mph , 9 km/h
Temperature: 45°F , 7°C
Wind Chill: 42°F , 6°C
Dew Point: 25°F , -4°C
Humidity: 46%
Barometer: 30.07 inHg , 1018.3 hPa
Clouds: Clear
Visibility: 10 miles , 16 km
2017/02/26 04:53 KFTW 260453Z 11005KT 10SM CLR 07/M04 A3007 RMK AO2 SLP183 T00721044 $
KGYI - Sherman/Denison, Texas, USA
Distance from station: N 43mi, 69km
Updated: Sat, 25-Feb-2017 11:15pm CST
Clear
Clear
 Wind from ESE
Wind: ESE 6 mph , 9 km/h
Temperature: 41°F , 5°C
Wind Chill: 37°F , 3°C
Dew Point: 23°F , -5°C
Humidity: 49%
Barometer: 30.10 inHg , 1019.3 hPa
Clouds: Clear
Visibility: 10 miles , 16 km
2017/02/26 05:15 KGYI 260515Z AUTO 12005KT 10SM CLR 05/M05 A3010 RMK AO2 T00501053
 
KNFW - Fort Worth Nas, Texas, USA
Distance from station: WSW 45mi, 73km
Updated: Sat, 25-Feb-2017 10:52pm CST
Clear
Clear
 Wind from SE
Wind: SE 7 mph , 11 km/h
Temperature: 46°F , 8°C
Wind Chill: 42°F , 6°C
Dew Point: 25°F , -4°C
Humidity: 43%
Barometer: 30.08 inHg , 1018.6 hPa
Clouds: Clear
Visibility: 10 miles , 16 km
2017/02/26 04:52 KNFW 260452Z AUTO 13006KT 10SM CLR 08/M04 A3008 RMK AO2 SLP167 T00831044 $
KGLE - Gainesville, Texas, USA
Distance from station: NW 46mi, 74km
Updated: Sat, 25-Feb-2017 11:15pm CST
Clear
Clear
 Wind from E
Wind: E 6 mph , 9 km/h
Temperature: 37°F , 3°C
Wind Chill: 32°F , 0°C
Dew Point: 23°F , -5°C
Humidity: 56%
Barometer: 30.10 inHg , 1019.3 hPa
Clouds: Clear
Visibility: 10 miles , 16 km
2017/02/26 05:15 KGLE 260515Z AUTO 10005KT 10SM CLR 03/M05 A3010 RMK AO2 T00271050
 
KJWY - Midlothian/Wax, Texas, USA
Distance from station: SSW 46mi, 74km
Updated: Sat, 25-Feb-2017 11:15pm CST
Clear
Clear
 Wind from calm
Wind: Calm
Temperature: 39°F , 4°C
Dew Point: 28°F , -2°C
Humidity: 65%
Barometer: 30.10 inHg , 1019.3 hPa
Clouds: Clear
Visibility: 10 miles , 16 km
2017/02/26 05:15 KJWY 260515Z AUTO 00000KT 10SM CLR 04/M02 A3010 RMK AO2 T00421024
KFWS - Fort Worth/88d, Texas, USA
Distance from station: SW 49mi, 79km
Updated: Sat, 25-Feb-2017 11:15pm CST
Clear
Clear
 Wind from calm
Wind: Calm
Temperature: 39°F , 4°C
Dew Point: 27°F , -3°C
Humidity: 61%
Barometer: 30.09 inHg , 1019 hPa
Clouds: Clear
Visibility: 10 miles , 16 km
2017/02/26 05:15 KFWS 260515Z AUTO 00000KT 10SM CLR 04/M03 A3009 RMK AO2 T00411028